sensor_id;sensor_type;location;lat;lon;timestamp;pressure;altitude;pressure_sealevel;temperature;humidity
45403;BME280;47427;51.976;5.326;2023-04-03T00:00:51;102992.03;;;3.07;88.04
45403;BME280;47427;51.976;5.326;2023-04-03T00:04:13;102982.34;;;2.96;88.14
45403;BME280;47427;51.976;5.326;2023-04-03T00:07:34;103003.38;;;2.99;88.46
45403;BME280;47427;51.976;5.326;2023-04-03T00:10:56;102984.22;;;2.88;88.74
45403;BME280;47427;51.976;5.326;2023-04-03T00:14:19;102965.13;;;2.77;88.60
45403;BME280;47427;51.976;5.326;2023-04-03T00:17:42;102991.31;;;2.80;89.15
45403;BME280;47427;51.976;5.326;2023-04-03T00:21:04;102998.44;;;2.83;89.18
45403;BME280;47427;51.976;5.326;2023-04-03T00:24:27;102988.63;;;2.70;89.37
45403;BME280;47427;51.976;5.326;2023-04-03T00:27:51;102986.47;;;2.56;89.81
45403;BME280;47427;51.976;5.326;2023-04-03T00:31:24;103010.00;;;2.68;90.05
45403;BME280;47427;51.976;5.326;2023-04-03T00:34:47;103006.69;;;2.60;90.22
45403;BME280;47427;51.976;5.326;2023-04-03T00:38:09;102993.38;;;2.47;90.52
45403;BME280;47427;51.976;5.326;2023-04-03T00:41:32;103001.31;;;2.48;90.63
45403;BME280;47427;51.976;5.326;2023-04-03T00:48:33;103014.75;;;2.35;90.88
45403;BME280;47427;51.976;5.326;2023-04-03T00:51:58;103008.81;;;2.36;91.69
45403;BME280;47427;51.976;5.326;2023-04-03T00:55:40;102990.63;;;2.17;91.84
45403;BME280;47427;51.976;5.326;2023-04-03T00:59:09;103003.72;;;2.19;91.76
45403;BME280;47427;51.976;5.326;2023-04-03T01:02:31;103019.84;;;2.25;92.09
45403;BME280;47427;51.976;5.326;2023-04-03T01:05:55;103001.31;;;2.12;92.46
45403;BME280;47427;51.976;5.326;2023-04-03T01:09:17;103032.94;;;2.27;92.96
45403;BME280;47427;51.976;5.326;2023-04-03T01:12:42;103021.28;;;2.13;93.06
45403;BME280;47427;51.976;5.326;2023-04-03T01:16:06;103039.72;;;2.16;93.16
45403;BME280;47427;51.976;5.326;2023-04-03T01:19:30;103031.94;;;2.16;93.57
45403;BME280;47427;51.976;5.326;2023-04-03T01:26:28;103020.25;;;2.02;93.94
45403;BME280;47427;51.976;5.326;2023-04-03T01:29:49;103029.97;;;2.05;94.77
45403;BME280;47427;51.976;5.326;2023-04-03T01:33:13;103009.94;;;1.93;94.48
45403;BME280;47427;51.976;5.326;2023-04-03T01:36:36;103024.22;;;1.99;95.11
45403;BME280;47427;51.976;5.326;2023-04-03T01:39:58;103021.81;;;1.91;95.46
45403;BME280;47427;51.976;5.326;2023-04-03T01:43:20;103025.94;;;1.89;96.05
45403;BME280;47427;51.976;5.326;2023-04-03T01:46:42;103023.97;;;1.87;96.07
45403;BME280;47427;51.976;5.326;2023-04-03T01:50:05;103020.31;;;1.85;96.39
45403;BME280;47427;51.976;5.326;2023-04-03T01:53:29;103014.09;;;1.74;97.21
45403;BME280;47427;51.976;5.326;2023-04-03T01:56:52;103012.91;;;1.70;97.38
45403;BME280;47427;51.976;5.326;2023-04-03T02:00:15;103019.44;;;1.67;98.13
45403;BME280;47427;51.976;5.326;2023-04-03T02:03:38;103039.25;;;1.75;98.63
45403;BME280;47427;51.976;5.326;2023-04-03T02:07:00;103013.06;;;1.63;98.27
45403;BME280;47427;51.976;5.326;2023-04-03T02:10:22;103036.66;;;1.66;98.96
45403;BME280;47427;51.976;5.326;2023-04-03T02:13:44;103038.03;;;1.63;98.99
45403;BME280;47427;51.976;5.326;2023-04-03T02:17:08;103031.22;;;1.55;99.82
45403;BME280;47427;51.976;5.326;2023-04-03T02:20:29;103030.59;;;1.48;100.00
45403;BME280;47427;51.976;5.326;2023-04-03T02:23:52;103045.19;;;1.57;100.00
45403;BME280;47427;51.976;5.326;2023-04-03T02:27:14;103029.53;;;1.46;100.00
45403;BME280;47427;51.976;5.326;2023-04-03T02:30:37;103031.81;;;1.43;100.00
45403;BME280;47427;51.976;5.326;2023-04-03T02:33:59;103039.28;;;1.40;100.00
45403;BME280;47427;51.976;5.326;2023-04-03T02:37:21;103046.72;;;1.46;100.00
45403;BME280;47427;51.976;5.326;2023-04-03T02:40:45;103054.50;;;1.46;100.00
45403;BME280;47427;51.976;5.326;2023-04-03T02:44:10;103038.81;;;1.36;100.00
45403;BME280;47427;51.976;5.326;2023-04-03T02:47:34;103042.94;;;1.42;100.00
45403;BME280;47427;51.976;5.326;2023-04-03T02:50:58;103029.88;;;1.32;100.00
45403;BME280;47427;51.976;5.326;2023-04-03T02:54:21;103044.16;;;1.37;100.00
45403;BME280;47427;51.976;5.326;2023-04-03T02:57:49;103055.53;;;1.39;100.00
45403;BME280;47427;51.976;5.326;2023-04-03T03:01:12;103034.72;;;1.20;100.00
45403;BME280;47427;51.976;5.326;2023-04-03T03:04:34;103044.75;;;1.26;100.00
45403;BME280;47427;51.976;5.326;2023-04-03T03:07:57;103067.13;;;1.34;100.00
45403;BME280;47427;51.976;5.326;2023-04-03T03:11:20;103068.97;;;1.35;100.00
45403;BME280;47427;51.976;5.326;2023-04-03T03:14:42;103065.63;;;1.27;100.00
45403;BME280;47427;51.976;5.326;2023-04-03T03:18:05;103060.44;;;1.27;100.00
45403;BME280;47427;51.976;5.326;2023-04-03T03:21:27;103069.56;;;1.33;100.00
45403;BME280;47427;51.976;5.326;2023-04-03T03:24:50;103063.34;;;1.22;100.00
45403;BME280;47427;51.976;5.326;2023-04-03T03:28:13;103069.72;;;1.25;100.00
45403;BME280;47427;51.976;5.326;2023-04-03T03:31:34;103055.41;;;1.20;100.00
45403;BME280;47427;51.976;5.326;2023-04-03T03:34:57;103068.94;;;1.18;100.00
45403;BME280;47427;51.976;5.326;2023-04-03T03:38:21;103076.09;;;1.20;100.00
45403;BME280;47427;51.976;5.326;2023-04-03T03:41:42;103077.63;;;1.10;100.00
45403;BME280;47427;51.976;5.326;2023-04-03T03:45:06;103067.28;;;1.10;100.00
45403;BME280;47427;51.976;5.326;2023-04-03T03:48:28;103090.84;;;1.13;100.00
45403;BME280;47427;51.976;5.326;2023-04-03T03:51:51;103090.84;;;1.13;100.00
45403;BME280;47427;51.976;5.326;2023-04-03T03:55:14;103090.38;;;1.08;100.00
45403;BME280;47427;51.976;5.326;2023-04-03T03:58:36;103096.63;;;1.10;100.00
45403;BME280;47427;51.976;5.326;2023-04-03T04:01:59;103090.25;;;1.06;100.00
45403;BME280;47427;51.976;5.326;2023-04-03T04:05:43;103093.44;;;1.04;100.00
45403;BME280;47427;51.976;5.326;2023-04-03T04:09:04;103058.44;;;0.81;100.00
45403;BME280;47427;51.976;5.326;2023-04-03T04:12:28;103094.00;;;0.93;100.00
45403;BME280;47427;51.976;5.326;2023-04-03T04:15:50;103082.28;;;0.88;100.00
45403;BME280;47427;51.976;5.326;2023-04-03T04:19:14;103091.13;;;0.90;100.00
45403;BME280;47427;51.976;5.326;2023-04-03T04:22:39;103083.97;;;0.87;100.00
45403;BME280;47427;51.976;5.326;2023-04-03T04:26:01;103088.66;;;0.74;100.00
45403;BME280;47427;51.976;5.326;2023-04-03T04:29:26;103085.00;;;0.72;100.00
45403;BME280;47427;51.976;5.326;2023-04-03T04:32:48;103107.66;;;0.83;100.00
45403;BME280;47427;51.976;5.326;2023-04-03T04:36:11;103092.16;;;0.74;100.00
45403;BME280;47427;51.976;5.326;2023-04-03T04:39:34;103097.31;;;0.74;100.00
45403;BME280;47427;51.976;5.326;2023-04-03T04:42:56;103082.97;;;0.60;100.00
45403;BME280;47427;51.976;5.326;2023-04-03T04:46:39;103087.09;;;0.58;100.00
45403;BME280;47427;51.976;5.326;2023-04-03T04:50:04;103106.69;;;0.65;100.00
45403;BME280;47427;51.976;5.326;2023-04-03T04:53:28;103101.53;;;0.65;100.00
45403;BME280;47427;51.976;5.326;2023-04-03T04:56:51;103115.34;;;0.65;100.00
45403;BME280;47427;51.976;5.326;2023-04-03T05:00:14;103112.03;;;0.67;100.00
45403;BME280;47427;51.976;5.326;2023-04-03T05:03:36;103123.16;;;0.74;100.00
45403;BME280;47427;51.976;5.326;2023-04-03T05:06:59;103099.41;;;0.61;100.00
45403;BME280;47427;51.976;5.326;2023-04-03T05:10:23;103106.22;;;0.60;100.00
45403;BME280;47427;51.976;5.326;2023-04-03T05:14:07;103112.94;;;0.58;100.00
45403;BME280;47427;51.976;5.326;2023-04-03T05:17:30;103121.59;;;0.68;100.00
45403;BME280;47427;51.976;5.326;2023-04-03T05:20:53;103107.59;;;0.57;100.00
45403;BME280;47427;51.976;5.326;2023-04-03T05:24:19;103138.78;;;0.67;100.00
45403;BME280;47427;51.976;5.326;2023-04-03T05:27:41;103081.09;;;0.33;100.00
45403;BME280;47427;51.976;5.326;2023-04-03T05:31:04;103131.91;;;0.59;100.00
45403;BME280;47427;51.976;5.326;2023-04-03T05:34:31;103147.56;;;0.60;100.00
45403;BME280;47427;51.976;5.326;2023-04-03T05:37:53;103139.34;;;0.56;100.00
45403;BME280;47427;51.976;5.326;2023-04-03T05:41:17;103105.84;;;0.40;100.00
45403;BME280;47427;51.976;5.326;2023-04-03T05:44:41;103120.91;;;0.44;100.00
45403;BME280;47427;51.976;5.326;2023-04-03T05:48:05;103133.25;;;0.55;100.00
45403;BME280;47427;51.976;5.326;2023-04-03T05:51:36;103144.97;;;0.60;100.00
45403;BME280;47427;51.976;5.326;2023-04-03T05:55:17;103147.56;;;0.60;100.00
45403;BME280;47427;51.976;5.326;2023-04-03T05:58:40;103158.09;;;0.71;100.00
45403;BME280;47427;51.976;5.326;2023-04-03T06:02:01;103115.03;;;0.54;100.00
45403;BME280;47427;51.976;5.326;2023-04-03T06:05:25;103130.91;;;0.74;100.00
45403;BME280;47427;51.976;5.326;2023-04-03T06:08:48;103119.97;;;0.77;100.00
45403;BME280;47427;51.976;5.326;2023-04-03T06:12:10;103166.25;;;1.08;100.00
45403;BME280;47427;51.976;5.326;2023-04-03T06:15:33;103147.13;;;1.06;100.00
45403;BME280;47427;51.976;5.326;2023-04-03T06:18:56;103143.75;;;1.16;100.00
45403;BME280;47427;51.976;5.326;2023-04-03T06:22:18;103085.22;;;0.99;100.00
45403;BME280;47427;51.976;5.326;2023-04-03T06:25:42;103173.47;;;2.15;100.00
45403;BME280;47427;51.976;5.326;2023-04-03T06:29:03;103167.84;;;3.77;100.00
45403;BME280;47427;51.976;5.326;2023-04-03T06:32:26;103164.25;;;4.83;96.56
45403;BME280;47427;51.976;5.326;2023-04-03T06:35:49;103164.81;;;5.60;89.44
45403;BME280;47427;51.976;5.326;2023-04-03T06:39:17;103170.72;;;6.33;85.03
45403;BME280;47427;51.976;5.326;2023-04-03T06:42:39;103182.03;;;7.43;80.91
45403;BME280;47427;51.976;5.326;2023-04-03T06:46:06;103164.03;;;7.93;75.83
45403;BME280;47427;51.976;5.326;2023-04-03T06:49:28;103174.50;;;8.77;72.71
45403;BME280;47427;51.976;5.326;2023-04-03T06:52:51;103161.44;;;9.54;71.21
45403;BME280;47427;51.976;5.326;2023-04-03T06:56:13;103181.97;;;9.99;65.17
45403;BME280;47427;51.976;5.326;2023-04-03T06:59:36;103197.00;;;10.83;62.10
45403;BME280;47427;51.976;5.326;2023-04-03T07:02:59;103190.38;;;11.46;58.85
45403;BME280;47427;51.976;5.326;2023-04-03T07:06:21;103177.25;;;11.76;55.71
45403;BME280;47427;51.976;5.326;2023-04-03T07:09:44;103190.44;;;12.22;53.13
45403;BME280;47427;51.976;5.326;2023-04-03T07:13:07;103193.56;;;12.94;52.26
45403;BME280;47427;51.976;5.326;2023-04-03T07:16:28;103198.38;;;13.68;49.88
45403;BME280;47427;51.976;5.326;2023-04-03T07:19:53;103196.06;;;14.64;48.45
45403;BME280;47427;51.976;5.326;2023-04-03T07:23:15;103202.81;;;14.96;45.48
45403;BME280;47427;51.976;5.326;2023-04-03T07:26:39;103198.78;;;15.43;43.20
45403;BME280;47427;51.976;5.326;2023-04-03T07:30:02;103204.84;;;16.23;43.52
45403;BME280;47427;51.976;5.326;2023-04-03T07:33:24;103192.41;;;17.12;41.97
45403;BME280;47427;51.976;5.326;2023-04-03T07:36:47;103202.88;;;17.83;40.47
45403;BME280;47427;51.976;5.326;2023-04-03T07:40:11;103212.44;;;18.59;38.25
45403;BME280;47427;51.976;5.326;2023-04-03T07:43:53;103205.25;;;19.15;37.42
45403;BME280;47427;51.976;5.326;2023-04-03T07:47:17;103199.66;;;19.06;34.25
45403;BME280;47427;51.976;5.326;2023-04-03T07:50:43;103198.06;;;19.76;34.40
45403;BME280;47427;51.976;5.326;2023-04-03T07:54:06;103204.00;;;20.37;33.17
45403;BME280;47427;51.976;5.326;2023-04-03T07:57:27;103177.16;;;20.67;32.02
45403;BME280;47427;51.976;5.326;2023-04-03T08:00:50;103206.25;;;21.40;29.88
45403;BME280;47427;51.976;5.326;2023-04-03T08:04:13;103207.19;;;21.94;29.72
45403;BME280;47427;51.976;5.326;2023-04-03T08:07:37;103216.78;;;22.36;28.06
45403;BME280;47427;51.976;5.326;2023-04-03T08:11:01;103201.72;;;21.88;28.27
45403;BME280;47427;51.976;5.326;2023-04-03T08:14:25;103210.16;;;22.11;26.57
45403;BME280;47427;51.976;5.326;2023-04-03T08:17:46;103200.28;;;22.66;26.03
45403;BME280;47427;51.976;5.326;2023-04-03T08:21:10;103210.19;;;23.46;25.19
45403;BME280;47427;51.976;5.326;2023-04-03T08:24:33;103207.00;;;23.81;24.49
45403;BME280;47427;51.976;5.326;2023-04-03T08:27:56;103195.78;;;24.39;23.92
45403;BME280;47427;51.976;5.326;2023-04-03T08:31:19;103219.31;;;24.81;23.04
45403;BME280;47427;51.976;5.326;2023-04-03T08:34:41;103210.25;;;24.61;21.44
45403;BME280;47427;51.976;5.326;2023-04-03T08:38:04;103223.75;;;24.72;22.24
45403;BME280;47427;51.976;5.326;2023-04-03T08:41:37;103228.50;;;25.51;20.20
45403;BME280;47427;51.976;5.326;2023-04-03T08:45:06;103233.09;;;25.90;20.65
45403;BME280;47427;51.976;5.326;2023-04-03T08:48:39;103236.63;;;26.34;20.19
45403;BME280;47427;51.976;5.326;2023-04-03T08:52:11;103220.44;;;26.49;19.12
45403;BME280;47427;51.976;5.326;2023-04-03T08:55:50;103237.25;;;27.14;18.55
45403;BME280;47427;51.976;5.326;2023-04-03T08:59:23;103216.88;;;28.09;17.81
45403;BME280;47427;51.976;5.326;2023-04-03T09:02:50;103218.88;;;27.88;16.60
45403;BME280;47427;51.976;5.326;2023-04-03T09:06:26;103223.16;;;28.11;16.75
45403;BME280;47427;51.976;5.326;2023-04-03T09:09:51;103217.44;;;28.40;15.93
45403;BME280;47427;51.976;5.326;2023-04-03T09:13:39;103207.97;;;28.84;15.17
45403;BME280;47427;51.976;5.326;2023-04-03T09:21:15;103219.03;;;28.63;13.78
45403;BME280;47427;51.976;5.326;2023-04-03T09:24:38;103220.66;;;28.79;13.70
45403;BME280;47427;51.976;5.326;2023-04-03T09:28:01;103218.16;;;29.89;14.82
45403;BME280;47427;51.976;5.326;2023-04-03T09:31:29;103207.13;;;29.44;12.35
45403;BME280;47427;51.976;5.326;2023-04-03T09:34:55;103215.59;;;28.48;12.23
45403;BME280;47427;51.976;5.326;2023-04-03T09:38:22;103215.06;;;28.08;13.10
45403;BME280;47427;51.976;5.326;2023-04-03T09:42:11;103218.19;;;29.30;12.77
45403;BME280;47427;51.976;5.326;2023-04-03T09:45:36;103205.53;;;29.32;12.25
45403;BME280;47427;51.976;5.326;2023-04-03T09:49:01;103206.56;;;30.34;12.17
45403;BME280;47427;51.976;5.326;2023-04-03T09:52:26;103194.88;;;30.30;11.12
45403;BME280;47427;51.976;5.326;2023-04-03T09:55:49;103173.84;;;29.41;11.93
45403;BME280;47427;51.976;5.326;2023-04-03T09:59:15;103184.53;;;30.51;11.18
45403;BME280;47427;51.976;5.326;2023-04-03T10:02:39;103162.06;;;32.00;10.38
45403;BME280;47427;51.976;5.326;2023-04-03T10:06:05;103183.06;;;31.57;10.99
45403;BME280;47427;51.976;5.326;2023-04-03T10:09:58;103173.13;;;31.93;10.17
45403;BME280;47427;51.976;5.326;2023-04-03T10:13:21;103172.06;;;30.87;9.11
45403;BME280;47427;51.976;5.326;2023-04-03T10:16:54;103184.56;;;30.01;10.48
45403;BME280;47427;51.976;5.326;2023-04-03T10:20:43;103173.91;;;29.92;10.51
45403;BME280;47427;51.976;5.326;2023-04-03T10:51:16;103117.13;;;29.89;10.19
45403;BME280;47427;51.976;5.326;2023-04-03T10:58:40;103097.38;;;29.82;9.35
45403;BME280;47427;51.976;5.326;2023-04-03T11:02:32;103122.88;;;30.18;9.97
45403;BME280;47427;51.976;5.326;2023-04-03T11:05:56;103127.88;;;29.39;9.88
45403;BME280;47427;51.976;5.326;2023-04-03T11:09:31;103131.47;;;29.92;10.48
45403;BME280;47427;51.976;5.326;2023-04-03T11:16:33;103122.59;;;30.32;10.89
45403;BME280;47427;51.976;5.326;2023-04-03T11:23:42;103108.69;;;30.91;10.42
45403;BME280;47427;51.976;5.326;2023-04-03T11:27:17;103128.38;;;30.59;11.14
45403;BME280;47427;51.976;5.326;2023-04-03T11:34:39;103109.88;;;29.89;10.44
45403;BME280;47427;51.976;5.326;2023-04-03T11:38:04;103096.91;;;31.65;10.09
45403;BME280;47427;51.976;5.326;2023-04-03T11:41:31;103110.09;;;29.78;10.87
45403;BME280;47427;51.976;5.326;2023-04-03T11:48:49;103116.53;;;30.63;10.49
45403;BME280;47427;51.976;5.326;2023-04-03T11:52:11;103092.81;;;30.73;11.01
45403;BME280;47427;51.976;5.326;2023-04-03T11:59:22;103100.47;;;30.94;11.32
45403;BME280;47427;51.976;5.326;2023-04-03T12:02:44;103086.38;;;31.17;10.70
45403;BME280;47427;51.976;5.326;2023-04-03T12:09:57;103083.69;;;29.90;11.13
45403;BME280;47427;51.976;5.326;2023-04-03T12:13:19;103072.16;;;30.27;10.85
45403;BME280;47427;51.976;5.326;2023-04-03T12:16:46;103065.47;;;30.44;10.76
45403;BME280;47427;51.976;5.326;2023-04-03T12:20:46;103055.06;;;29.27;11.12
45403;BME280;47427;51.976;5.326;2023-04-03T12:27:40;103051.53;;;30.18;11.13
45403;BME280;47427;51.976;5.326;2023-04-03T12:31:04;103052.09;;;29.90;11.84
45403;BME280;47427;51.976;5.326;2023-04-03T12:39:03;103038.16;;;29.14;11.28
45403;BME280;47427;51.976;5.326;2023-04-03T12:43:02;103035.53;;;29.60;11.67
45403;BME280;47427;51.976;5.326;2023-04-03T12:46:42;103028.44;;;29.01;12.03
45403;BME280;47427;51.976;5.326;2023-04-03T12:50:26;103023.47;;;28.06;11.81
45403;BME280;47427;51.976;5.326;2023-04-03T12:53:51;103023.19;;;29.46;11.68
45403;BME280;47427;51.976;5.326;2023-04-03T12:57:46;103014.69;;;29.17;11.39
45403;BME280;47427;51.976;5.326;2023-04-03T13:01:27;103017.31;;;29.21;11.46
45403;BME280;47427;51.976;5.326;2023-04-03T13:04:59;103010.03;;;29.75;11.74
45403;BME280;47427;51.976;5.326;2023-04-03T13:08:26;102998.75;;;29.50;12.48
45403;BME280;47427;51.976;5.326;2023-04-03T13:11:51;103004.47;;;30.27;11.21
45403;BME280;47427;51.976;5.326;2023-04-03T13:18:42;102982.84;;;28.17;12.58
45403;BME280;47427;51.976;5.326;2023-04-03T13:22:34;102974.97;;;30.11;12.36
45403;BME280;47427;51.976;5.326;2023-04-03T13:26:00;102981.00;;;31.02;12.11
45403;BME280;47427;51.976;5.326;2023-04-03T13:29:32;102998.44;;;30.53;11.61
45403;BME280;47427;51.976;5.326;2023-04-03T13:32:57;102965.16;;;30.48;11.68
45403;BME280;47427;51.976;5.326;2023-04-03T13:36:23;102974.84;;;29.75;12.19
45403;BME280;47427;51.976;5.326;2023-04-03T13:40:16;102974.00;;;28.06;13.45
45403;BME280;47427;51.976;5.326;2023-04-03T13:43:38;102979.91;;;28.93;13.03
45403;BME280;47427;51.976;5.326;2023-04-03T13:47:20;102969.75;;;29.09;12.78
45403;BME280;47427;51.976;5.326;2023-04-03T13:54:39;102983.94;;;28.66;12.08
45403;BME280;47427;51.976;5.326;2023-04-03T13:58:25;102967.25;;;28.38;12.84
45403;BME280;47427;51.976;5.326;2023-04-03T14:05:25;102975.97;;;29.15;13.53
45403;BME280;47427;51.976;5.326;2023-04-03T14:08:48;102972.00;;;29.35;12.54
45403;BME280;47427;51.976;5.326;2023-04-03T14:12:46;102952.78;;;28.45;12.63
45403;BME280;47427;51.976;5.326;2023-04-03T14:16:22;102959.66;;;27.17;13.08
45403;BME280;47427;51.976;5.326;2023-04-03T14:19:45;102941.03;;;26.93;14.03
45403;BME280;47427;51.976;5.326;2023-04-03T14:23:08;102931.53;;;27.48;14.16
45403;BME280;47427;51.976;5.326;2023-04-03T14:26:31;102949.56;;;28.18;13.91
45403;BME280;47427;51.976;5.326;2023-04-03T14:29:55;102941.25;;;27.59;13.45
45403;BME280;47427;51.976;5.326;2023-04-03T14:33:21;102931.56;;;26.36;13.86
45403;BME280;47427;51.976;5.326;2023-04-03T14:36:45;102919.81;;;26.47;14.31
45403;BME280;47427;51.976;5.326;2023-04-03T14:40:13;102933.09;;;26.74;14.27
45403;BME280;47427;51.976;5.326;2023-04-03T14:43:36;102925.88;;;26.78;14.48
45403;BME280;47427;51.976;5.326;2023-04-03T14:46:58;102933.69;;;25.55;14.94
45403;BME280;47427;51.976;5.326;2023-04-03T14:50:26;102904.09;;;25.62;15.50
45403;BME280;47427;51.976;5.326;2023-04-03T14:53:49;102914.88;;;25.65;15.20
45403;BME280;47427;51.976;5.326;2023-04-03T14:57:14;102912.88;;;26.09;15.18
45403;BME280;47427;51.976;5.326;2023-04-03T15:00:37;102912.09;;;25.93;15.64
45403;BME280;47427;51.976;5.326;2023-04-03T15:03:59;102926.56;;;25.50;15.19
45403;BME280;47427;51.976;5.326;2023-04-03T15:07:23;102921.25;;;24.63;15.81
45403;BME280;47427;51.976;5.326;2023-04-03T15:10:47;102921.25;;;24.68;16.67
45403;BME280;47427;51.976;5.326;2023-04-03T15:14:09;102904.81;;;23.65;16.93
45403;BME280;47427;51.976;5.326;2023-04-03T15:17:32;102913.13;;;24.43;16.77
45403;BME280;47427;51.976;5.326;2023-04-03T15:20:56;102893.41;;;24.15;16.89
45403;BME280;47427;51.976;5.326;2023-04-03T15:24:18;102915.00;;;24.87;16.79
45403;BME280;47427;51.976;5.326;2023-04-03T15:28:00;102901.47;;;24.19;17.27
45403;BME280;47427;51.976;5.326;2023-04-03T15:31:22;102920.81;;;23.49;16.78
45403;BME280;47427;51.976;5.326;2023-04-03T15:34:45;102922.09;;;24.43;17.57
45403;BME280;47427;51.976;5.326;2023-04-03T15:38:08;102919.38;;;24.28;17.35
45403;BME280;47427;51.976;5.326;2023-04-03T15:41:30;102909.47;;;24.04;17.34
45403;BME280;47427;51.976;5.326;2023-04-03T15:44:53;102927.97;;;23.46;17.11
45403;BME280;47427;51.976;5.326;2023-04-03T15:48:14;102921.91;;;23.82;17.19
45403;BME280;47427;51.976;5.326;2023-04-03T15:51:36;102901.56;;;24.47;17.37
45403;BME280;47427;51.976;5.326;2023-04-03T15:54:59;102921.25;;;24.60;17.36
45403;BME280;47427;51.976;5.326;2023-04-03T15:58:21;102903.25;;;24.08;17.29
45403;BME280;47427;51.976;5.326;2023-04-03T16:02:05;102914.81;;;22.62;18.23
45403;BME280;47427;51.976;5.326;2023-04-03T16:05:27;102902.94;;;23.47;18.17
45403;BME280;47427;51.976;5.326;2023-04-03T16:08:49;102912.81;;;23.52;17.86
45403;BME280;47427;51.976;5.326;2023-04-03T16:12:12;102901.69;;;22.96;17.63
45403;BME280;47427;51.976;5.326;2023-04-03T16:15:34;102904.06;;;21.79;18.87
45403;BME280;47427;51.976;5.326;2023-04-03T16:18:57;102896.06;;;21.79;19.67
45403;BME280;47427;51.976;5.326;2023-04-03T16:22:21;102903.69;;;21.50;19.46
45403;BME280;47427;51.976;5.326;2023-04-03T16:25:42;102907.44;;;21.63;19.46
45403;BME280;47427;51.976;5.326;2023-04-03T16:29:08;102909.09;;;21.53;19.60
45403;BME280;47427;51.976;5.326;2023-04-03T16:32:32;102905.03;;;21.83;20.20
45403;BME280;47427;51.976;5.326;2023-04-03T16:35:53;102928.13;;;21.18;20.23
45403;BME280;47427;51.976;5.326;2023-04-03T16:39:16;102930.25;;;20.85;20.80
45403;BME280;47427;51.976;5.326;2023-04-03T16:42:39;102914.53;;;20.51;21.16
45403;BME280;47427;51.976;5.326;2023-04-03T16:46:02;102930.59;;;20.09;21.81
45403;BME280;47427;51.976;5.326;2023-04-03T16:49:45;102923.84;;;20.28;22.29
45403;BME280;47427;51.976;5.326;2023-04-03T16:53:08;102919.47;;;19.87;22.14
45403;BME280;47427;51.976;5.326;2023-04-03T16:56:32;102914.59;;;19.27;23.51
45403;BME280;47427;51.976;5.326;2023-04-03T16:59:54;102921.41;;;18.79;23.63
45403;BME280;47427;51.976;5.326;2023-04-03T17:03:17;102913.53;;;17.87;24.31
45403;BME280;47427;51.976;5.326;2023-04-03T17:06:40;102923.97;;;17.24;24.54
45403;BME280;47427;51.976;5.326;2023-04-03T17:10:02;102923.22;;;16.75;25.59
45403;BME280;47427;51.976;5.326;2023-04-03T17:13:45;102928.03;;;15.65;26.43
45403;BME280;47427;51.976;5.326;2023-04-03T17:17:08;102933.06;;;14.52;28.11
45403;BME280;47427;51.976;5.326;2023-04-03T17:20:30;102924.72;;;13.83;29.99
45403;BME280;47427;51.976;5.326;2023-04-03T17:24:00;102930.06;;;12.94;31.48
45403;BME280;47427;51.976;5.326;2023-04-03T17:27:24;102934.44;;;12.08;33.31
45403;BME280;47427;51.976;5.326;2023-04-03T17:30:47;102937.06;;;11.61;33.68
45403;BME280;47427;51.976;5.326;2023-04-03T17:34:10;102919.72;;;11.17;34.71
45403;BME280;47427;51.976;5.326;2023-04-03T17:37:33;102936.50;;;10.89;35.81
45403;BME280;47427;51.976;5.326;2023-04-03T17:41:05;102936.84;;;10.66;35.94
45403;BME280;47427;51.976;5.326;2023-04-03T17:44:28;102944.72;;;10.36;36.49
45403;BME280;47427;51.976;5.326;2023-04-03T17:47:51;102915.03;;;10.09;37.40
45403;BME280;47427;51.976;5.326;2023-04-03T17:51:19;102949.84;;;10.06;37.69
45403;BME280;47427;51.976;5.326;2023-04-03T17:54:41;102932.22;;;9.75;38.33
45403;BME280;47427;51.976;5.326;2023-04-03T17:58:04;102947.75;;;9.59;38.80
45403;BME280;47427;51.976;5.326;2023-04-03T18:01:31;102959.31;;;9.35;39.57
45403;BME280;47427;51.976;5.326;2023-04-03T18:04:53;102957.97;;;9.01;40.71
45403;BME280;47427;51.976;5.326;2023-04-03T18:08:15;102945.97;;;8.78;40.53
45403;BME280;47427;51.976;5.326;2023-04-03T18:11:39;102975.63;;;8.65;41.19
45403;BME280;47427;51.976;5.326;2023-04-03T18:15:03;102965.63;;;8.46;41.48
45403;BME280;47427;51.976;5.326;2023-04-03T18:18:26;102957.09;;;8.37;41.82
45403;BME280;47427;51.976;5.326;2023-04-03T18:21:47;102972.81;;;8.37;42.50
45403;BME280;47427;51.976;5.326;2023-04-03T18:25:10;102946.03;;;8.03;43.16
45403;BME280;47427;51.976;5.326;2023-04-03T18:28:35;102947.16;;;7.95;43.27
45403;BME280;47427;51.976;5.326;2023-04-03T18:32:00;102959.47;;;7.84;44.87
45403;BME280;47427;51.976;5.326;2023-04-03T18:35:25;102982.09;;;7.95;44.83
45403;BME280;47427;51.976;5.326;2023-04-03T18:38:47;102955.56;;;7.77;45.59
45403;BME280;47427;51.976;5.326;2023-04-03T18:42:27;102974.53;;;7.63;45.32
45403;BME280;47427;51.976;5.326;2023-04-03T18:45:51;102989.28;;;7.74;46.33
45403;BME280;47427;51.976;5.326;2023-04-03T18:49:13;102985.00;;;7.63;47.20
45403;BME280;47427;51.976;5.326;2023-04-03T18:52:36;102980.00;;;7.54;47.20
45403;BME280;47427;51.976;5.326;2023-04-03T18:55:58;102956.09;;;7.25;47.51
45403;BME280;47427;51.976;5.326;2023-04-03T18:59:39;102915.69;;;6.84;47.43
45403;BME280;47427;51.976;5.326;2023-04-03T19:03:01;102990.81;;;7.24;48.03
45403;BME280;47427;51.976;5.326;2023-04-03T19:06:22;102982.31;;;7.14;48.79
45403;BME280;47427;51.976;5.326;2023-04-03T19:09:45;102985.59;;;7.12;48.70
45403;BME280;47427;51.976;5.326;2023-04-03T19:13:08;102969.78;;;6.99;49.07
45403;BME280;47427;51.976;5.326;2023-04-03T19:16:51;102994.53;;;6.92;48.57
45403;BME280;47427;51.976;5.326;2023-04-03T19:20:14;102983.28;;;6.81;49.51
45403;BME280;47427;51.976;5.326;2023-04-03T19:23:36;102982.09;;;6.66;48.66